Brownfield, Illinois
Current Conditions -  °F | °C
As of 4:15 AM on Thursday 23 Oct 2014 (Local Time) from KM30 Reporting Station
NA  
Wind Chill: 38°   Ceiling: NA
Heat Index: 38°   Visibility: NA
Dew Point: 38°   Wind: 0mph
Humidity: 100%   Direction: NA
Pressure: 30.21"   Gusts: NA
Location:  37.3224°N, 88.5774°W
Report Text: KM30 230915Z AUTO 00000KT 03/03 A3021 RMK AO2 T00340034 PWINO
Loading
Personal Weather Stations






























Interactive Weather Map
Tropical Storm Tracking
New forecast layout! Learn more

10-Day Weather Forecast

Advertisements
Track Severe Weather on mobile